sensor_id;sensor_type;location;lat;lon;timestamp;temperature;humidity
46283;DHT22;32017;43.700;11.820;2023-02-11T00:01:10;-3.60;93.60
46283;DHT22;32017;43.700;11.820;2023-02-11T00:03:30;-3.60;93.90
46283;DHT22;32017;43.700;11.820;2023-02-11T00:06:00;-3.50;93.30
46283;DHT22;32017;43.700;11.820;2023-02-11T00:08:21;-3.60;93.50
46283;DHT22;32017;43.700;11.820;2023-02-11T00:10:40;-3.60;93.50
46283;DHT22;32017;43.700;11.820;2023-02-11T00:13:01;-3.60;93.90
46283;DHT22;32017;43.700;11.820;2023-02-11T00:15:20;-3.70;94.10
46283;DHT22;32017;43.700;11.820;2023-02-11T00:17:40;-3.80;93.80
46283;DHT22;32017;43.700;11.820;2023-02-11T00:20:00;-3.70;93.60
46283;DHT22;32017;43.700;11.820;2023-02-11T00:22:19;-3.70;93.60
46283;DHT22;32017;43.700;11.820;2023-02-11T00:24:39;-3.40;92.00
46283;DHT22;32017;43.700;11.820;2023-02-11T00:26:59;-3.20;91.40
46283;DHT22;32017;43.700;11.820;2023-02-11T00:29:19;-3.20;91.90
46283;DHT22;32017;43.700;11.820;2023-02-11T00:31:39;-3.20;91.30
46283;DHT22;32017;43.700;11.820;2023-02-11T00:33:59;-3.10;91.30
46283;DHT22;32017;43.700;11.820;2023-02-11T00:36:25;-3.30;92.10
46283;DHT22;32017;43.700;11.820;2023-02-11T00:38:46;-3.40;92.80
46283;DHT22;32017;43.700;11.820;2023-02-11T00:41:06;-3.20;91.20
46283;DHT22;32017;43.700;11.820;2023-02-11T00:43:26;-3.40;93.50
46283;DHT22;32017;43.700;11.820;2023-02-11T00:45:46;-3.80;95.40
46283;DHT22;32017;43.700;11.820;2023-02-11T00:48:06;-4.10;96.40
46283;DHT22;32017;43.700;11.820;2023-02-11T00:50:26;-4.30;96.70
46283;DHT22;32017;43.700;11.820;2023-02-11T00:52:46;-4.30;96.80
46283;DHT22;32017;43.700;11.820;2023-02-11T00:55:07;-4.40;96.90
46283;DHT22;32017;43.700;11.820;2023-02-11T00:57:27;-4.40;97.30
46283;DHT22;32017;43.700;11.820;2023-02-11T00:59:47;-4.50;96.90
46283;DHT22;32017;43.700;11.820;2023-02-11T01:02:07;-4.40;96.50
46283;DHT22;32017;43.700;11.820;2023-02-11T01:04:27;-4.50;97.30
46283;DHT22;32017;43.700;11.820;2023-02-11T01:06:47;-4.50;97.10
46283;DHT22;32017;43.700;11.820;2023-02-11T01:09:07;-4.50;97.10
46283;DHT22;32017;43.700;11.820;2023-02-11T01:11:27;-4.50;97.20
46283;DHT22;32017;43.700;11.820;2023-02-11T01:13:47;-4.40;97.40
46283;DHT22;32017;43.700;11.820;2023-02-11T01:16:08;-4.50;97.30
46283;DHT22;32017;43.700;11.820;2023-02-11T01:18:29;-4.50;97.50
46283;DHT22;32017;43.700;11.820;2023-02-11T01:21:07;-4.40;96.70
46283;DHT22;32017;43.700;11.820;2023-02-11T01:23:27;-4.40;96.10
46283;DHT22;32017;43.700;11.820;2023-02-11T01:25:47;-4.30;95.90
46283;DHT22;32017;43.700;11.820;2023-02-11T01:28:18;-4.30;95.90
46283;DHT22;32017;43.700;11.820;2023-02-11T01:30:39;-4.30;95.90
46283;DHT22;32017;43.700;11.820;2023-02-11T01:32:59;-4.20;95.60
46283;DHT22;32017;43.700;11.820;2023-02-11T01:35:19;-4.30;95.50
46283;DHT22;32017;43.700;11.820;2023-02-11T01:37:39;-4.20;95.40
46283;DHT22;32017;43.700;11.820;2023-02-11T01:40:05;-4.20;95.30
46283;DHT22;32017;43.700;11.820;2023-02-11T01:42:25;-4.20;95.30
46283;DHT22;32017;43.700;11.820;2023-02-11T01:44:49;-4.20;95.80
46283;DHT22;32017;43.700;11.820;2023-02-11T01:47:10;-4.30;96.10
46283;DHT22;32017;43.700;11.820;2023-02-11T01:52:02;-4.50;96.90
46283;DHT22;32017;43.700;11.820;2023-02-11T01:54:29;-4.50;96.80
46283;DHT22;32017;43.700;11.820;2023-02-11T01:57:10;-4.50;97.20
46283;DHT22;32017;43.700;11.820;2023-02-11T01:59:59;-4.60;97.30
46283;DHT22;32017;43.700;11.820;2023-02-11T02:02:24;-4.60;97.40
46283;DHT22;32017;43.700;11.820;2023-02-11T02:05:13;-4.60;96.80
46283;DHT22;32017;43.700;11.820;2023-02-11T02:07:51;-4.50;96.20
46283;DHT22;32017;43.700;11.820;2023-02-11T02:10:16;-4.30;96.00
46283;DHT22;32017;43.700;11.820;2023-02-11T02:12:37;-4.20;95.90
46283;DHT22;32017;43.700;11.820;2023-02-11T02:15:33;-4.20;95.80
46283;DHT22;32017;43.700;11.820;2023-02-11T02:18:06;-4.20;95.90
46283;DHT22;32017;43.700;11.820;2023-02-11T02:23:04;-4.30;96.20
46283;DHT22;32017;43.700;11.820;2023-02-11T02:28:34;-4.40;96.40
46283;DHT22;32017;43.700;11.820;2023-02-11T02:31:44;-4.40;96.40
46283;DHT22;32017;43.700;11.820;2023-02-11T02:34:17;-4.30;96.30
46283;DHT22;32017;43.700;11.820;2023-02-11T02:36:46;-4.30;96.40
46283;DHT22;32017;43.700;11.820;2023-02-11T02:39:17;-4.40;96.30
46283;DHT22;32017;43.700;11.820;2023-02-11T02:41:39;-4.50;96.70
46283;DHT22;32017;43.700;11.820;2023-02-11T02:44:00;-4.40;96.80
46283;DHT22;32017;43.700;11.820;2023-02-11T02:46:32;-4.50;96.80
46283;DHT22;32017;43.700;11.820;2023-02-11T02:48:53;-4.60;97.40
46283;DHT22;32017;43.700;11.820;2023-02-11T02:59:32;-4.90;98.50
46283;DHT22;32017;43.700;11.820;2023-02-11T03:01:56;-4.90;98.30
46283;DHT22;32017;43.700;11.820;2023-02-11T03:07:08;-5.10;99.00
46283;DHT22;32017;43.700;11.820;2023-02-11T03:09:43;-5.20;99.20
46283;DHT22;32017;43.700;11.820;2023-02-11T03:12:05;-5.20;99.50
46283;DHT22;32017;43.700;11.820;2023-02-11T03:14:26;-5.20;99.40
46283;DHT22;32017;43.700;11.820;2023-02-11T03:16:47;-5.10;99.30
46283;DHT22;32017;43.700;11.820;2023-02-11T03:19:12;-4.90;98.40
46283;DHT22;32017;43.700;11.820;2023-02-11T03:21:35;-4.80;98.40
46283;DHT22;32017;43.700;11.820;2023-02-11T03:23:59;-4.80;98.40
46283;DHT22;32017;43.700;11.820;2023-02-11T03:31:35;-4.80;98.60
46283;DHT22;32017;43.700;11.820;2023-02-11T03:33:58;-4.90;98.90
46283;DHT22;32017;43.700;11.820;2023-02-11T03:36:41;-4.90;98.80
46283;DHT22;32017;43.700;11.820;2023-02-11T03:39:08;-4.90;98.70
46283;DHT22;32017;43.700;11.820;2023-02-11T03:41:30;-4.90;98.30
46283;DHT22;32017;43.700;11.820;2023-02-11T03:43:53;-4.80;98.10
46283;DHT22;32017;43.700;11.820;2023-02-11T03:46:17;-4.80;98.00
46283;DHT22;32017;43.700;11.820;2023-02-11T03:48:41;-4.80;97.80
46283;DHT22;32017;43.700;11.820;2023-02-11T03:51:06;-4.70;97.60
46283;DHT22;32017;43.700;11.820;2023-02-11T03:53:27;-4.70;97.70
46283;DHT22;32017;43.700;11.820;2023-02-11T03:55:49;-4.70;97.80
46283;DHT22;32017;43.700;11.820;2023-02-11T03:58:10;-4.70;97.70
46283;DHT22;32017;43.700;11.820;2023-02-11T04:00:34;-4.70;97.80
46283;DHT22;32017;43.700;11.820;2023-02-11T04:02:55;-4.70;97.90
46283;DHT22;32017;43.700;11.820;2023-02-11T04:05:15;-4.80;98.10
46283;DHT22;32017;43.700;11.820;2023-02-11T04:07:35;-4.80;98.20
46283;DHT22;32017;43.700;11.820;2023-02-11T04:09:56;-4.80;98.10
46283;DHT22;32017;43.700;11.820;2023-02-11T04:12:15;-4.70;98.00
46283;DHT22;32017;43.700;11.820;2023-02-11T04:14:35;-4.60;97.90
46283;DHT22;32017;43.700;11.820;2023-02-11T04:16:55;-4.60;97.80
46283;DHT22;32017;43.700;11.820;2023-02-11T04:19:15;-4.60;97.80
46283;DHT22;32017;43.700;11.820;2023-02-11T04:21:34;-4.60;97.50
46283;DHT22;32017;43.700;11.820;2023-02-11T04:23:54;-4.60;97.50
46283;DHT22;32017;43.700;11.820;2023-02-11T04:26:13;-4.60;97.70
46283;DHT22;32017;43.700;11.820;2023-02-11T04:28:34;-4.60;97.70
46283;DHT22;32017;43.700;11.820;2023-02-11T04:30:55;-4.60;97.90
46283;DHT22;32017;43.700;11.820;2023-02-11T04:33:16;-4.80;98.20
46283;DHT22;32017;43.700;11.820;2023-02-11T04:35:35;-4.90;98.70
46283;DHT22;32017;43.700;11.820;2023-02-11T04:37:55;-5.00;98.80
46283;DHT22;32017;43.700;11.820;2023-02-11T04:40:15;-5.00;98.70
46283;DHT22;32017;43.700;11.820;2023-02-11T04:42:36;-4.90;98.70
46283;DHT22;32017;43.700;11.820;2023-02-11T04:44:55;-5.00;98.60
46283;DHT22;32017;43.700;11.820;2023-02-11T04:47:16;-4.90;98.50
46283;DHT22;32017;43.700;11.820;2023-02-11T04:49:35;-4.90;98.40
46283;DHT22;32017;43.700;11.820;2023-02-11T04:51:55;-4.80;98.30
46283;DHT22;32017;43.700;11.820;2023-02-11T04:54:15;-4.80;98.40
46283;DHT22;32017;43.700;11.820;2023-02-11T04:56:36;-4.90;98.70
46283;DHT22;32017;43.700;11.820;2023-02-11T04:58:55;-4.90;98.70
46283;DHT22;32017;43.700;11.820;2023-02-11T05:01:16;-4.90;98.60
46283;DHT22;32017;43.700;11.820;2023-02-11T05:03:36;-4.80;99.10
46283;DHT22;32017;43.700;11.820;2023-02-11T05:05:58;-4.80;98.60
46283;DHT22;32017;43.700;11.820;2023-02-11T05:08:18;-4.80;98.20
46283;DHT22;32017;43.700;11.820;2023-02-11T05:10:38;-4.90;98.40
46283;DHT22;32017;43.700;11.820;2023-02-11T05:12:58;-4.90;98.50
46283;DHT22;32017;43.700;11.820;2023-02-11T05:15:18;-4.90;98.70
46283;DHT22;32017;43.700;11.820;2023-02-11T05:17:38;-4.90;98.70
46283;DHT22;32017;43.700;11.820;2023-02-11T05:19:58;-5.00;98.70
46283;DHT22;32017;43.700;11.820;2023-02-11T05:22:17;-5.10;99.10
46283;DHT22;32017;43.700;11.820;2023-02-11T05:24:37;-5.20;99.50
46283;DHT22;32017;43.700;11.820;2023-02-11T05:26:58;-5.20;99.70
46283;DHT22;32017;43.700;11.820;2023-02-11T05:29:17;-5.30;99.50
46283;DHT22;32017;43.700;11.820;2023-02-11T05:31:39;-5.20;99.30
46283;DHT22;32017;43.700;11.820;2023-02-11T05:33:59;-5.20;99.30
46283;DHT22;32017;43.700;11.820;2023-02-11T05:36:19;-5.10;98.90
46283;DHT22;32017;43.700;11.820;2023-02-11T05:38:39;-5.10;98.90
46283;DHT22;32017;43.700;11.820;2023-02-11T05:41:01;-5.00;98.90
46283;DHT22;32017;43.700;11.820;2023-02-11T05:43:22;-5.00;98.70
46283;DHT22;32017;43.700;11.820;2023-02-11T05:45:42;-4.80;98.50
46283;DHT22;32017;43.700;11.820;2023-02-11T05:48:01;-4.80;98.30
46283;DHT22;32017;43.700;11.820;2023-02-11T05:50:21;-4.80;98.30
46283;DHT22;32017;43.700;11.820;2023-02-11T05:52:41;-4.70;98.30
46283;DHT22;32017;43.700;11.820;2023-02-11T05:55:01;-4.70;98.40
46283;DHT22;32017;43.700;11.820;2023-02-11T05:57:22;-4.80;98.50
46283;DHT22;32017;43.700;11.820;2023-02-11T05:59:42;-4.90;98.70
46283;DHT22;32017;43.700;11.820;2023-02-11T06:02:01;-4.90;98.80
46283;DHT22;32017;43.700;11.820;2023-02-11T06:04:22;-4.90;98.60
46283;DHT22;32017;43.700;11.820;2023-02-11T06:06:41;-5.00;99.10
46283;DHT22;32017;43.700;11.820;2023-02-11T06:09:02;-5.00;99.00
46283;DHT22;32017;43.700;11.820;2023-02-11T06:11:22;-4.90;98.50
46283;DHT22;32017;43.700;11.820;2023-02-11T06:13:42;-4.70;98.40
46283;DHT22;32017;43.700;11.820;2023-02-11T06:16:14;-4.80;98.20
46283;DHT22;32017;43.700;11.820;2023-02-11T06:18:34;-4.80;98.50
46283;DHT22;32017;43.700;11.820;2023-02-11T06:20:54;-4.80;98.40
46283;DHT22;32017;43.700;11.820;2023-02-11T06:23:14;-4.80;98.40
46283;DHT22;32017;43.700;11.820;2023-02-11T06:25:34;-4.80;98.80
46283;DHT22;32017;43.700;11.820;2023-02-11T06:27:54;-4.90;98.40
46283;DHT22;32017;43.700;11.820;2023-02-11T06:30:14;-4.90;98.70
46283;DHT22;32017;43.700;11.820;2023-02-11T06:32:34;-4.80;98.20
46283;DHT22;32017;43.700;11.820;2023-02-11T06:35:04;-4.80;98.20
46283;DHT22;32017;43.700;11.820;2023-02-11T06:37:25;-4.80;98.50
46283;DHT22;32017;43.700;11.820;2023-02-11T06:39:44;-4.90;99.70
46283;DHT22;32017;43.700;11.820;2023-02-11T06:42:05;-5.20;99.90
46283;DHT22;32017;43.700;11.820;2023-02-11T06:44:27;-5.30;99.90
46283;DHT22;32017;43.700;11.820;2023-02-11T06:46:47;-5.20;99.90
46283;DHT22;32017;43.700;11.820;2023-02-11T06:49:07;-5.10;99.00
46283;DHT22;32017;43.700;11.820;2023-02-11T06:51:27;-5.00;99.00
46283;DHT22;32017;43.700;11.820;2023-02-11T06:53:47;-5.00;98.90
46283;DHT22;32017;43.700;11.820;2023-02-11T06:56:11;-5.00;99.60
46283;DHT22;32017;43.700;11.820;2023-02-11T06:58:31;-5.00;99.30
46283;DHT22;32017;43.700;11.820;2023-02-11T07:00:51;-4.90;99.50
46283;DHT22;32017;43.700;11.820;2023-02-11T07:03:11;-4.80;99.80
46283;DHT22;32017;43.700;11.820;2023-02-11T07:05:32;-4.80;99.70
46283;DHT22;32017;43.700;11.820;2023-02-11T07:07:52;-4.80;99.70
46283;DHT22;32017;43.700;11.820;2023-02-11T07:10:13;-4.80;99.90
46283;DHT22;32017;43.700;11.820;2023-02-11T07:12:32;-4.80;99.50
46283;DHT22;32017;43.700;11.820;2023-02-11T07:14:52;-4.80;99.50
46283;DHT22;32017;43.700;11.820;2023-02-11T07:17:13;-4.70;99.90
46283;DHT22;32017;43.700;11.820;2023-02-11T07:19:33;-4.70;99.50
46283;DHT22;32017;43.700;11.820;2023-02-11T07:21:54;-4.50;99.50
46283;DHT22;32017;43.700;11.820;2023-02-11T07:24:14;-4.50;98.90
46283;DHT22;32017;43.700;11.820;2023-02-11T07:26:34;-4.30;98.40
46283;DHT22;32017;43.700;11.820;2023-02-11T07:28:54;-4.30;97.50
46283;DHT22;32017;43.700;11.820;2023-02-11T07:31:23;-4.10;97.20
46283;DHT22;32017;43.700;11.820;2023-02-11T07:33:43;-4.00;96.80
46283;DHT22;32017;43.700;11.820;2023-02-11T07:36:05;-3.90;96.50
46283;DHT22;32017;43.700;11.820;2023-02-11T07:38:26;-3.80;96.40
46283;DHT22;32017;43.700;11.820;2023-02-11T07:40:45;-3.70;96.50
46283;DHT22;32017;43.700;11.820;2023-02-11T07:43:05;-3.70;96.60
46283;DHT22;32017;43.700;11.820;2023-02-11T07:45:25;-3.70;96.30
46283;DHT22;32017;43.700;11.820;2023-02-11T07:47:46;-3.50;96.20
46283;DHT22;32017;43.700;11.820;2023-02-11T07:50:05;-3.40;95.60
46283;DHT22;32017;43.700;11.820;2023-02-11T07:52:28;-3.20;95.30
46283;DHT22;32017;43.700;11.820;2023-02-11T07:54:48;-3.10;95.20
46283;DHT22;32017;43.700;11.820;2023-02-11T07:57:08;-3.00;95.50
46283;DHT22;32017;43.700;11.820;2023-02-11T07:59:28;-3.00;95.80
46283;DHT22;32017;43.700;11.820;2023-02-11T08:01:49;-2.60;95.30
46283;DHT22;32017;43.700;11.820;2023-02-11T08:04:10;-2.50;94.30
46283;DHT22;32017;43.700;11.820;2023-02-11T08:06:33;-2.30;94.00
46283;DHT22;32017;43.700;11.820;2023-02-11T08:08:53;-2.30;93.90
46283;DHT22;32017;43.700;11.820;2023-02-11T08:11:25;-2.20;93.80
46283;DHT22;32017;43.700;11.820;2023-02-11T08:13:45;-2.20;94.20
46283;DHT22;32017;43.700;11.820;2023-02-11T08:16:06;-2.20;94.60
46283;DHT22;32017;43.700;11.820;2023-02-11T08:18:26;-2.00;93.40
46283;DHT22;32017;43.700;11.820;2023-02-11T08:20:46;-2.00;93.50
46283;DHT22;32017;43.700;11.820;2023-02-11T08:23:06;-1.80;93.80
46283;DHT22;32017;43.700;11.820;2023-02-11T08:25:27;-1.80;95.00
46283;DHT22;32017;43.700;11.820;2023-02-11T08:27:46;-1.80;95.60
46283;DHT22;32017;43.700;11.820;2023-02-11T08:30:07;-1.80;96.20
46283;DHT22;32017;43.700;11.820;2023-02-11T08:32:27;-1.70;96.40
46283;DHT22;32017;43.700;11.820;2023-02-11T08:34:51;-1.70;96.50
46283;DHT22;32017;43.700;11.820;2023-02-11T08:37:11;-1.60;96.30
46283;DHT22;32017;43.700;11.820;2023-02-11T08:39:31;-1.40;96.10
46283;DHT22;32017;43.700;11.820;2023-02-11T08:41:52;-1.40;94.60
46283;DHT22;32017;43.700;11.820;2023-02-11T08:44:16;-1.40;94.50
46283;DHT22;32017;43.700;11.820;2023-02-11T08:46:36;-1.30;92.80
46283;DHT22;32017;43.700;11.820;2023-02-11T08:48:56;-1.10;91.40
46283;DHT22;32017;43.700;11.820;2023-02-11T08:51:23;-0.80;90.40
46283;DHT22;32017;43.700;11.820;2023-02-11T08:53:44;-0.60;89.80
46283;DHT22;32017;43.700;11.820;2023-02-11T08:56:04;-0.50;88.60
46283;DHT22;32017;43.700;11.820;2023-02-11T08:58:25;-0.30;88.20
46283;DHT22;32017;43.700;11.820;2023-02-11T09:00:45;-0.20;88.40
46283;DHT22;32017;43.700;11.820;2023-02-11T09:03:05;-0.10;88.90
46283;DHT22;32017;43.700;11.820;2023-02-11T09:05:24;-0.10;90.50
46283;DHT22;32017;43.700;11.820;2023-02-11T09:07:45;-0.10;90.60
46283;DHT22;32017;43.700;11.820;2023-02-11T09:10:05;0.00;90.40
46283;DHT22;32017;43.700;11.820;2023-02-11T09:12:25;0.20;90.40
46283;DHT22;32017;43.700;11.820;2023-02-11T09:14:45;0.40;89.60
46283;DHT22;32017;43.700;11.820;2023-02-11T09:17:05;0.60;90.00
46283;DHT22;32017;43.700;11.820;2023-02-11T09:19:25;0.80;90.70
46283;DHT22;32017;43.700;11.820;2023-02-11T09:21:45;0.90;90.90
46283;DHT22;32017;43.700;11.820;2023-02-11T09:24:05;1.00;90.80
46283;DHT22;32017;43.700;11.820;2023-02-11T09:26:28;1.30;91.00
46283;DHT22;32017;43.700;11.820;2023-02-11T09:28:49;1.40;91.10
46283;DHT22;32017;43.700;11.820;2023-02-11T09:31:12;1.60;90.50
46283;DHT22;32017;43.700;11.820;2023-02-11T09:33:33;1.70;90.20
46283;DHT22;32017;43.700;11.820;2023-02-11T09:35:53;1.70;90.20
46283;DHT22;32017;43.700;11.820;2023-02-11T09:38:13;1.90;90.30
46283;DHT22;32017;43.700;11.820;2023-02-11T09:40:33;2.00;89.70
46283;DHT22;32017;43.700;11.820;2023-02-11T09:43:06;2.20;88.20
46283;DHT22;32017;43.700;11.820;2023-02-11T09:45:31;2.40;87.50
46283;DHT22;32017;43.700;11.820;2023-02-11T09:50:27;2.80;88.00
46283;DHT22;32017;43.700;11.820;2023-02-11T09:55:39;3.10;84.60
46283;DHT22;32017;43.700;11.820;2023-02-11T09:58:03;3.40;84.30
46283;DHT22;32017;43.700;11.820;2023-02-11T10:00:35;3.50;84.50
46283;DHT22;32017;43.700;11.820;2023-02-11T10:11:15;4.50;83.10
46283;DHT22;32017;43.700;11.820;2023-02-11T10:22:02;6.60;77.10
46283;DHT22;32017;43.700;11.820;2023-02-11T10:24:25;6.70;74.90
46283;DHT22;32017;43.700;11.820;2023-02-11T10:26:48;7.20;68.80
46283;DHT22;32017;43.700;11.820;2023-02-11T10:31:50;7.70;72.10
46283;DHT22;32017;43.700;11.820;2023-02-11T10:34:12;7.60;72.50
46283;DHT22;32017;43.700;11.820;2023-02-11T10:36:35;7.60;70.50
46283;DHT22;32017;43.700;11.820;2023-02-11T10:38:58;7.70;68.30
46283;DHT22;32017;43.700;11.820;2023-02-11T10:41:27;7.90;68.00
46283;DHT22;32017;43.700;11.820;2023-02-11T10:43:50;8.50;67.60
46283;DHT22;32017;43.700;11.820;2023-02-11T10:46:17;8.70;71.00
46283;DHT22;32017;43.700;11.820;2023-02-11T10:48:41;8.70;71.10
46283;DHT22;32017;43.700;11.820;2023-02-11T10:51:18;9.00;61.60
46283;DHT22;32017;43.700;11.820;2023-02-11T10:53:38;8.90;60.00
46283;DHT22;32017;43.700;11.820;2023-02-11T10:55:58;8.90;60.90
46283;DHT22;32017;43.700;11.820;2023-02-11T11:00:56;9.10;59.50
46283;DHT22;32017;43.700;11.820;2023-02-11T11:03:22;9.90;58.50
46283;DHT22;32017;43.700;11.820;2023-02-11T11:05:55;10.30;58.30
46283;DHT22;32017;43.700;11.820;2023-02-11T11:08:18;10.80;62.40
46283;DHT22;32017;43.700;11.820;2023-02-11T11:13:02;10.70;57.30
46283;DHT22;32017;43.700;11.820;2023-02-11T11:15:26;10.50;61.00
46283;DHT22;32017;43.700;11.820;2023-02-11T11:17:50;10.60;55.50
46283;DHT22;32017;43.700;11.820;2023-02-11T11:20:14;10.50;53.70
46283;DHT22;32017;43.700;11.820;2023-02-11T11:22:35;10.40;54.20
46283;DHT22;32017;43.700;11.820;2023-02-11T11:24:55;10.30;52.00
46283;DHT22;32017;43.700;11.820;2023-02-11T11:27:18;10.60;50.50
46283;DHT22;32017;43.700;11.820;2023-02-11T11:29:50;10.40;50.40
46283;DHT22;32017;43.700;11.820;2023-02-11T11:32:14;10.60;50.60
46283;DHT22;32017;43.700;11.820;2023-02-11T11:34:42;10.80;51.60
46283;DHT22;32017;43.700;11.820;2023-02-11T11:37:29;10.90;52.00
46283;DHT22;32017;43.700;11.820;2023-02-11T11:39:57;10.70;52.40
46283;DHT22;32017;43.700;11.820;2023-02-11T11:42:31;10.90;51.50
46283;DHT22;32017;43.700;11.820;2023-02-11T11:45:17;11.10;53.40
46283;DHT22;32017;43.700;11.820;2023-02-11T11:50:41;11.30;52.20
46283;DHT22;32017;43.700;11.820;2023-02-11T11:53:14;11.50;52.40
46283;DHT22;32017;43.700;11.820;2023-02-11T11:55:52;11.60;50.90
46283;DHT22;32017;43.700;11.820;2023-02-11T11:58:21;12.00;51.80
46283;DHT22;32017;43.700;11.820;2023-02-11T12:03:36;11.30;50.40
46283;DHT22;32017;43.700;11.820;2023-02-11T12:11:22;12.00;51.00
46283;DHT22;32017;43.700;11.820;2023-02-11T12:27:08;12.50;53.00
46283;DHT22;32017;43.700;11.820;2023-02-11T12:43:20;12.70;51.10
46283;DHT22;32017;43.700;11.820;2023-02-11T12:51:33;12.50;47.60
46283;DHT22;32017;43.700;11.820;2023-02-11T12:54:13;12.70;47.20
46283;DHT22;32017;43.700;11.820;2023-02-11T12:57:00;12.50;45.20
46283;DHT22;32017;43.700;11.820;2023-02-11T13:00:16;12.60;46.80
46283;DHT22;32017;43.700;11.820;2023-02-11T13:05:28;13.10;50.20
46283;DHT22;32017;43.700;11.820;2023-02-11T13:07:53;12.80;50.20
46283;DHT22;32017;43.700;11.820;2023-02-11T13:10:25;13.20;50.40
46283;DHT22;32017;43.700;11.820;2023-02-11T13:12:47;13.30;49.40
46283;DHT22;32017;43.700;11.820;2023-02-11T13:15:27;12.90;49.70
46283;DHT22;32017;43.700;11.820;2023-02-11T13:20:33;13.10;47.70
46283;DHT22;32017;43.700;11.820;2023-02-11T13:23:18;12.80;49.70
46283;DHT22;32017;43.700;11.820;2023-02-11T13:25:56;12.50;48.80
46283;DHT22;32017;43.700;11.820;2023-02-11T13:30:50;12.70;48.70
46283;DHT22;32017;43.700;11.820;2023-02-11T13:33:30;12.70;52.30
46283;DHT22;32017;43.700;11.820;2023-02-11T13:38:25;12.80;48.40
46283;DHT22;32017;43.700;11.820;2023-02-11T13:41:02;12.60;49.60
46283;DHT22;32017;43.700;11.820;2023-02-11T13:43:24;12.70;49.40
46283;DHT22;32017;43.700;11.820;2023-02-11T13:45:49;12.70;50.50
46283;DHT22;32017;43.700;11.820;2023-02-11T13:50:48;12.40;48.60
46283;DHT22;32017;43.700;11.820;2023-02-11T13:53:09;12.40;50.20
46283;DHT22;32017;43.700;11.820;2023-02-11T13:55:29;12.40;50.70
46283;DHT22;32017;43.700;11.820;2023-02-11T14:03:30;12.60;50.70
46283;DHT22;32017;43.700;11.820;2023-02-11T14:06:17;12.50;49.50
46283;DHT22;32017;43.700;11.820;2023-02-11T14:16:22;12.10;49.00
46283;DHT22;32017;43.700;11.820;2023-02-11T14:18:58;12.20;50.00
46283;DHT22;32017;43.700;11.820;2023-02-11T14:21:31;12.00;50.00
46283;DHT22;32017;43.700;11.820;2023-02-11T14:23:53;11.80;49.50
46283;DHT22;32017;43.700;11.820;2023-02-11T14:28:41;11.80;50.50
46283;DHT22;32017;43.700;11.820;2023-02-11T14:31:09;11.80;49.60
46283;DHT22;32017;43.700;11.820;2023-02-11T14:33:54;11.90;49.70
46283;DHT22;32017;43.700;11.820;2023-02-11T14:41:28;11.90;49.50
46283;DHT22;32017;43.700;11.820;2023-02-11T14:43:58;11.90;49.60
46283;DHT22;32017;43.700;11.820;2023-02-11T14:46:20;12.00;50.10
46283;DHT22;32017;43.700;11.820;2023-02-11T14:48:47;11.80;50.20
46283;DHT22;32017;43.700;11.820;2023-02-11T14:51:10;11.80;50.10
46283;DHT22;32017;43.700;11.820;2023-02-11T14:53:33;11.80;49.40
46283;DHT22;32017;43.700;11.820;2023-02-11T14:55:54;11.70;50.00
46283;DHT22;32017;43.700;11.820;2023-02-11T14:58:18;11.70;49.30
46283;DHT22;32017;43.700;11.820;2023-02-11T15:03:27;11.70;48.80
46283;DHT22;32017;43.700;11.820;2023-02-11T15:06:00;11.60;48.80
46283;DHT22;32017;43.700;11.820;2023-02-11T15:08:22;11.60;50.00
46283;DHT22;32017;43.700;11.820;2023-02-11T15:10:43;11.60;49.50
46283;DHT22;32017;43.700;11.820;2023-02-11T15:13:04;11.50;50.50
46283;DHT22;32017;43.700;11.820;2023-02-11T15:15:25;11.50;49.80
46283;DHT22;32017;43.700;11.820;2023-02-11T15:17:46;11.40;49.20
46283;DHT22;32017;43.700;11.820;2023-02-11T15:20:12;11.30;49.80
46283;DHT22;32017;43.700;11.820;2023-02-11T15:22:34;11.20;50.50
46283;DHT22;32017;43.700;11.820;2023-02-11T15:27:20;11.10;50.10
46283;DHT22;32017;43.700;11.820;2023-02-11T15:29:48;11.00;49.90
46283;DHT22;32017;43.700;11.820;2023-02-11T15:34:29;10.90;51.00
46283;DHT22;32017;43.700;11.820;2023-02-11T15:36:49;10.70;52.00
46283;DHT22;32017;43.700;11.820;2023-02-11T15:39:16;10.70;51.80
46283;DHT22;32017;43.700;11.820;2023-02-11T15:41:37;10.60;51.30
46283;DHT22;32017;43.700;11.820;2023-02-11T15:43:57;10.60;51.70
46283;DHT22;32017;43.700;11.820;2023-02-11T15:46:19;10.50;52.20
46283;DHT22;32017;43.700;11.820;2023-02-11T15:48:46;10.40;51.80
46283;DHT22;32017;43.700;11.820;2023-02-11T15:54:04;10.30;52.30
46283;DHT22;32017;43.700;11.820;2023-02-11T15:56:41;10.10;53.10
46283;DHT22;32017;43.700;11.820;2023-02-11T15:59:13;10.20;52.00
46283;DHT22;32017;43.700;11.820;2023-02-11T16:01:36;10.10;52.30
46283;DHT22;32017;43.700;11.820;2023-02-11T16:03:57;10.00;53.10
46283;DHT22;32017;43.700;11.820;2023-02-11T16:06:22;10.00;52.80
46283;DHT22;32017;43.700;11.820;2023-02-11T16:11:28;9.80;52.90
46283;DHT22;32017;43.700;11.820;2023-02-11T16:13:49;9.70;52.80
46283;DHT22;32017;43.700;11.820;2023-02-11T16:16:21;9.60;52.90
46283;DHT22;32017;43.700;11.820;2023-02-11T16:18:49;9.50;53.30
46283;DHT22;32017;43.700;11.820;2023-02-11T16:21:30;9.40;53.10
46283;DHT22;32017;43.700;11.820;2023-02-11T16:23:54;9.20;54.50
46283;DHT22;32017;43.700;11.820;2023-02-11T16:26:48;8.90;54.60
46283;DHT22;32017;43.700;11.820;2023-02-11T16:29:16;8.80;55.30
46283;DHT22;32017;43.700;11.820;2023-02-11T16:31:39;8.60;56.00
46283;DHT22;32017;43.700;11.820;2023-02-11T16:34:00;8.50;55.90
46283;DHT22;32017;43.700;11.820;2023-02-11T16:36:20;8.50;55.60
46283;DHT22;32017;43.700;11.820;2023-02-11T16:38:40;8.50;55.00
46283;DHT22;32017;43.700;11.820;2023-02-11T16:41:00;8.40;55.50
46283;DHT22;32017;43.700;11.820;2023-02-11T16:43:19;8.30;56.70
46283;DHT22;32017;43.700;11.820;2023-02-11T16:45:39;8.20;56.80
46283;DHT22;32017;43.700;11.820;2023-02-11T16:48:00;8.10;57.30
46283;DHT22;32017;43.700;11.820;2023-02-11T16:50:23;8.00;58.20
46283;DHT22;32017;43.700;11.820;2023-02-11T16:52:43;7.80;58.80
46283;DHT22;32017;43.700;11.820;2023-02-11T16:55:04;7.70;59.20
46283;DHT22;32017;43.700;11.820;2023-02-11T16:57:25;7.60;60.00
46283;DHT22;32017;43.700;11.820;2023-02-11T16:59:49;7.50;59.90
46283;DHT22;32017;43.700;11.820;2023-02-11T17:02:30;7.50;60.30
46283;DHT22;32017;43.700;11.820;2023-02-11T17:04:53;7.50;60.90
46283;DHT22;32017;43.700;11.820;2023-02-11T17:07:13;7.30;60.70
46283;DHT22;32017;43.700;11.820;2023-02-11T17:09:33;7.30;61.30
46283;DHT22;32017;43.700;11.820;2023-02-11T17:11:54;7.50;60.90
46283;DHT22;32017;43.700;11.820;2023-02-11T17:14:15;7.50;61.20
46283;DHT22;32017;43.700;11.820;2023-02-11T17:16:34;7.40;61.60
46283;DHT22;32017;43.700;11.820;2023-02-11T17:18:55;7.30;61.70
46283;DHT22;32017;43.700;11.820;2023-02-11T17:21:14;7.10;62.30